< < Back
Terminal Aerodrome Forecast


Current Version              Previous Versions:   1  2  3  4  5  6  7  8  9  

Terminal Aerodrome Forecast

791
FTUS44 KMRX 292325
TAFTYS
TAF
KTYS 292325Z 3000/3024 24012G18KT P6SM BKN060
     FM300200 28012KT P6SM VCSH BKN040 BKN080
     FM300500 30010KT P6SM -RASN BKN025
     FM301200 33010KT P6SM SCT035 BKN080
     FM301800 34010KT P6SM SCT050 BKN150=



Latest METAR

218
SAUS80 KWBC 300600 RRC
MTRTYS
METAR KTYS 300553Z 00000KT 10SM OVC025 05/M01 A3021 RMK AO2 SLP233 60000
T00501006 10117 20044 51040


USA.gov is the U.S. government's official web portal to all federal, state and local government web resources and services.